Time,TemperatureF,DewpointF,PressureIn,WindDirection,WindDirectionDegrees,WindSpeedMPH,WindSpeedGustMPH,Humidity,HourlyPrecipIn,Conditions,Clouds,dailyrainin,SoftwareType,DateUTC
2013-05-19 00:32:00,68.0,-99.9,-100.00,SW,214,2.0,3.0,-999,0.00,,,0.00,,2013-05-19 05:32:00,
2013-05-19 00:42:00,68.0,-99.9,-100.00,SW,214,2.0,3.0,-999,0.00,,,0.00,,2013-05-19 05:42:00,
2013-05-19 00:52:00,68.0,-99.9,-100.00,SW,214,2.0,3.0,-999,0.00,,,0.00,,2013-05-19 05:52:00,
2013-05-19 01:02:00,67.0,-99.9,-100.00,SW,217,1.0,3.0,-999,0.00,,,0.00,,2013-05-19 06:02:00,
2013-05-19 01:12:00,67.0,-99.9,-100.00,SW,217,1.0,3.0,-999,0.00,,,0.00,,2013-05-19 06:12:00,
2013-05-19 01:22:00,67.0,-99.9,-100.00,SW,217,1.0,3.0,-999,0.00,,,0.00,,2013-05-19 06:22:00,
2013-05-19 01:32:00,66.0,-99.9,-100.00,North,353,0.0,0.0,-999,0.00,,,0.00,,2013-05-19 06:32:00,
2013-05-19 01:42:00,66.0,-99.9,-100.00,North,353,0.0,0.0,-999,0.00,,,0.00,,2013-05-19 06:42:00,
2013-05-19 01:52:00,66.0,-99.9,-100.00,North,353,0.0,0.0,-999,0.00,,,0.00,,2013-05-19 06:52:00,
2013-05-19 02:01:00,66.0,-99.9,-100.00,SSW,196,1.0,2.0,-999,0.00,,,0.00,,2013-05-19 07:01:00,
2013-05-19 02:11:00,66.0,-99.9,-100.00,SSW,196,1.0,2.0,-999,0.00,,,0.00,,2013-05-19 07:11:00,
2013-05-19 02:22:00,66.0,-99.9,-100.00,SSW,196,1.0,2.0,-999,0.00,,,0.00,,2013-05-19 07:22:00,
2013-05-19 02:32:00,66.0,-99.9,-100.00,South,176,1.0,3.0,-999,0.00,,,0.00,,2013-05-19 07:32:00,
2013-05-19 02:42:00,66.0,-99.9,-100.00,South,176,1.0,3.0,-999,0.00,,,0.00,,2013-05-19 07:42:00,
2013-05-19 02:52:00,66.0,-99.9,-100.00,South,176,1.0,3.0,-999,0.00,,,0.00,,2013-05-19 07:52:00,
2013-05-19 03:02:00,67.0,-99.9,-100.00,South,181,2.0,4.0,-999,0.00,,,0.00,,2013-05-19 08:02:00,
2013-05-19 03:12:00,67.0,-99.9,-100.00,South,181,2.0,4.0,-999,0.00,,,0.00,,2013-05-19 08:12:00,
2013-05-19 03:22:00,67.0,-99.9,-100.00,South,181,2.0,4.0,-999,0.00,,,0.00,,2013-05-19 08:22:00,
2013-05-19 03:30:00,68.0,-99.9,-100.00,SSE,155,6.0,8.0,-999,0.00,,,0.00,,2013-05-19 08:30:00,
2013-05-19 03:32:00,68.0,-99.9,-100.00,SSW,197,2.0,5.0,-999,0.00,,,0.00,,2013-05-19 08:32:00,
2013-05-19 03:42:00,68.0,-99.9,-100.00,SSW,197,2.0,5.0,-999,0.00,,,0.00,,2013-05-19 08:42:00,
2013-05-19 03:52:00,68.0,-99.9,-100.00,SSW,197,2.0,5.0,-999,0.00,,,0.00,,2013-05-19 08:52:00,
2013-05-19 04:02:00,68.0,-99.9,-100.00,SSE,155,6.0,8.0,-999,0.00,,,0.00,,2013-05-19 09:02:00,
2013-05-19 04:12:00,68.0,-99.9,-100.00,SSE,155,6.0,8.0,-999,0.00,,,0.00,,2013-05-19 09:12:00,
2013-05-19 04:21:00,68.0,-99.9,-100.00,SSE,155,6.0,8.0,-999,0.00,,,0.00,,2013-05-19 09:21:00,
2013-05-19 05:03:00,66.0,-99.9,-100.00,SSE,153,4.0,6.0,-999,0.00,,,0.00,,2013-05-19 10:03:00,
2013-05-19 05:13:00,66.0,-99.9,-100.00,SSE,153,4.0,6.0,-999,0.00,,,0.00,,2013-05-19 10:13:00,
2013-05-19 05:23:00,66.0,-99.9,-100.00,SSE,153,4.0,6.0,-999,0.00,,,0.00,,2013-05-19 10:23:00,
2013-05-19 05:33:00,65.0,-99.9,-100.00,SSE,151,1.0,1.0,-999,0.00,,,0.00,,2013-05-19 10:33:00,
2013-05-19 05:42:00,65.0,-99.9,-100.00,SSE,151,1.0,1.0,-999,0.00,,,0.00,,2013-05-19 10:42:00,
2013-05-19 05:53:00,65.0,-99.9,-100.00,SSE,151,1.0,1.0,-999,0.00,,,0.00,,2013-05-19 10:53:00,
2013-05-19 06:02:00,65.0,-99.9,-100.00,SSE,152,3.0,4.0,-999,0.00,,,0.00,,2013-05-19 11:02:00,
2013-05-19 06:12:00,65.0,-99.9,-100.00,SSE,152,3.0,4.0,-999,0.00,,,0.00,,2013-05-19 11:12:00,
2013-05-19 06:22:00,65.0,-99.9,-100.00,SSE,152,3.0,4.0,-999,0.00,,,0.00,,2013-05-19 11:22:00,
2013-05-19 06:32:00,66.0,-99.9,-100.00,East,87,4.0,8.0,-999,0.00,,,0.00,,2013-05-19 11:32:00,
2013-05-19 06:42:00,66.0,-99.9,-100.00,East,87,4.0,8.0,-999,0.00,,,0.00,,2013-05-19 11:42:00,
2013-05-19 06:53:00,66.0,-99.9,-100.00,East,87,4.0,8.0,-999,0.00,,,0.00,,2013-05-19 11:53:00,
2013-05-19 07:02:00,67.0,-99.9,-100.00,South,173,2.0,4.0,-999,0.00,,,0.00,,2013-05-19 12:02:00,
2013-05-19 07:12:00,67.0,-99.9,-100.00,South,173,2.0,4.0,-999,0.00,,,0.00,,2013-05-19 12:12:00,
2013-05-19 07:22:00,67.0,-99.9,-100.00,South,173,2.0,4.0,-999,0.00,,,0.00,,2013-05-19 12:22:00,
2013-05-19 07:30:00,67.0,-99.9,-100.00,South,176,1.0,4.0,-999,0.00,,,0.00,,2013-05-19 12:30:00,
2013-05-19 07:32:00,68.0,-99.9,-100.00,SSE,151,3.0,5.0,-999,0.00,,,0.00,,2013-05-19 12:32:00,
2013-05-19 07:42:00,68.0,-99.9,-100.00,SSE,151,3.0,5.0,-999,0.00,,,0.00,,2013-05-19 12:42:00,
2013-05-19 07:52:00,68.0,-99.9,-100.00,SSE,151,3.0,5.0,-999,0.00,,,0.00,,2013-05-19 12:52:00,
2013-05-19 08:01:00,67.0,-99.9,-100.00,South,176,1.0,4.0,-999,0.00,,,0.00,,2013-05-19 13:01:00,
2013-05-19 08:12:00,67.0,-99.9,-100.00,South,176,1.0,4.0,-999,0.00,,,0.00,,2013-05-19 13:12:00,
2013-05-19 08:22:00,67.0,-99.9,-100.00,South,176,1.0,4.0,-999,0.00,,,0.00,,2013-05-19 13:22:00,
2013-05-19 09:02:00,67.0,-99.9,-100.00,SE,138,5.0,7.0,-999,0.00,,,0.00,,2013-05-19 14:02:00,
2013-05-19 09:11:00,67.0,-99.9,-100.00,SE,138,5.0,7.0,-999,0.00,,,0.00,,2013-05-19 14:11:00,
2013-05-19 09:21:00,67.0,-99.9,-100.00,SE,138,5.0,7.0,-999,0.00,,,0.00,,2013-05-19 14:21:00,
2013-05-19 09:32:00,66.0,-99.9,-100.00,ESE,109,5.0,8.0,-999,0.03,,,0.03,,2013-05-19 14:32:00,
2013-05-19 09:42:00,66.0,-99.9,-100.00,ESE,109,5.0,8.0,-999,0.03,,,0.03,,2013-05-19 14:42:00,
2013-05-19 09:52:00,66.0,-99.9,-100.00,ESE,109,5.0,8.0,-999,0.03,,,0.03,,2013-05-19 14:52:00,
2013-05-19 10:02:00,66.0,-99.9,-100.00,NW,310,3.0,5.0,-999,0.09,,,0.09,,2013-05-19 15:02:00,
2013-05-19 10:12:00,66.0,-99.9,-100.00,NW,310,3.0,5.0,-999,0.09,,,0.09,,2013-05-19 15:12:00,
2013-05-19 10:22:00,66.0,-99.9,-100.00,NW,310,3.0,5.0,-999,0.09,,,0.09,,2013-05-19 15:22:00,
2013-05-19 10:33:00,67.0,-99.9,-100.00,South,180,7.0,13.0,-999,0.06,,,0.09,,2013-05-19 15:33:00,
2013-05-19 10:43:00,67.0,-99.9,-100.00,South,180,7.0,13.0,-999,0.06,,,0.09,,2013-05-19 15:43:00,
2013-05-19 10:53:00,67.0,-99.9,-100.00,South,180,7.0,13.0,-999,0.06,,,0.09,,2013-05-19 15:53:00,
2013-05-19 11:03:00,68.0,-99.9,-100.00,SSE,153,9.0,11.0,-999,0.00,,,0.09,,2013-05-19 16:03:00,
2013-05-19 11:13:00,68.0,-99.9,-100.00,SSE,153,9.0,11.0,-999,0.00,,,0.09,,2013-05-19 16:13:00,
2013-05-19 11:23:00,68.0,-99.9,-100.00,SSE,153,9.0,11.0,-999,0.00,,,0.09,,2013-05-19 16:23:00,
2013-05-19 11:33:00,72.0,-99.9,-100.00,SSE,147,10.0,13.0,-999,0.00,,,0.09,,2013-05-19 16:33:00,
2013-05-19 11:42:00,72.0,-99.9,-100.00,SSE,147,10.0,13.0,-999,0.00,,,0.09,,2013-05-19 16:42:00,
2013-05-19 11:53:00,72.0,-99.9,-100.00,SSE,147,10.0,13.0,-999,0.00,,,0.09,,2013-05-19 16:53:00,
2013-05-19 12:02:00,76.0,-99.9,-100.00,SSE,153,7.0,9.0,-999,0.00,,,0.09,,2013-05-19 17:02:00,
2013-05-19 12:12:00,76.0,-99.9,-100.00,SSE,153,7.0,9.0,-999,0.00,,,0.09,,2013-05-19 17:12:00,
2013-05-19 12:22:00,76.0,-99.9,-100.00,SSE,153,7.0,9.0,-999,0.00,,,0.09,,2013-05-19 17:22:00,
2013-05-19 12:32:00,77.0,-99.9,-100.00,SE,142,10.0,15.0,-999,0.00,,,0.09,,2013-05-19 17:32:00,
2013-05-19 12:43:00,77.0,-99.9,-100.00,SE,142,10.0,15.0,-999,0.00,,,0.09,,2013-05-19 17:43:00,
2013-05-19 12:52:00,77.0,-99.9,-100.00,SE,142,10.0,15.0,-999,0.00,,,0.09,,2013-05-19 17:52:00,
2013-05-19 13:02:00,78.0,-99.9,-100.00,SSE,157,12.0,17.0,-999,0.00,,,0.09,,2013-05-19 18:02:00,
2013-05-19 13:12:00,78.0,-99.9,-100.00,SSE,157,12.0,17.0,-999,0.00,,,0.09,,2013-05-19 18:12:00,
2013-05-19 13:22:00,78.0,-99.9,-100.00,SSE,157,12.0,17.0,-999,0.00,,,0.09,,2013-05-19 18:22:00,
2013-05-19 13:32:00,82.0,-99.9,-100.00,SSE,152,13.0,17.0,-999,0.00,,,0.09,,2013-05-19 18:32:00,
2013-05-19 13:43:00,82.0,-99.9,-100.00,SSE,152,13.0,17.0,-999,0.00,,,0.09,,2013-05-19 18:43:00,
2013-05-19 13:53:00,82.0,-99.9,-100.00,SSE,152,13.0,17.0,-999,0.00,,,0.09,,2013-05-19 18:53:00,
2013-05-19 14:01:00,81.0,-99.9,-100.00,SSE,163,13.0,22.0,-999,0.00,,,-99.99,,2013-05-19 19:01:00,
2013-05-19 14:11:00,81.0,-99.9,-100.00,SSE,163,13.0,22.0,-999,0.00,,,-99.99,,2013-05-19 19:11:00,
2013-05-19 14:22:00,81.0,-99.9,-100.00,SSE,163,13.0,22.0,-999,0.00,,,-99.99,,2013-05-19 19:22:00,
2013-05-19 14:32:00,71.0,-99.9,-100.00,SE,138,8.0,16.0,-999,0.10,,,0.19,,2013-05-19 19:32:00,
2013-05-19 15:02:00,68.0,-99.9,-100.00,SE,139,11.0,15.0,-999,0.11,,,0.20,,2013-05-19 20:02:00,
2013-05-19 15:32:00,68.0,-99.9,-100.00,SSE,151,5.0,9.0,-999,0.01,,,0.20,,2013-05-19 20:32:00,
2013-05-19 15:42:00,68.0,-99.9,-100.00,SSE,151,5.0,9.0,-999,0.01,,,0.20,,2013-05-19 20:42:00,
2013-05-19 15:52:00,68.0,-99.9,-100.00,SSE,151,5.0,9.0,-999,0.01,,,0.20,,2013-05-19 20:52:00,
2013-05-19 16:02:00,72.0,-99.9,-100.00,SSE,160,3.0,6.0,-999,0.00,,,0.20,,2013-05-19 21:02:00,
2013-05-19 16:11:00,72.0,-99.9,-100.00,SSE,160,3.0,6.0,-999,0.00,,,0.20,,2013-05-19 21:11:00,
2013-05-19 16:22:00,72.0,-99.9,-100.00,SSE,160,3.0,6.0,-999,0.00,,,0.20,,2013-05-19 21:22:00,
2013-05-19 16:32:00,76.0,-99.9,-100.00,SSE,164,3.0,5.0,-999,0.00,,,0.20,,2013-05-19 21:32:00,
2013-05-19 16:43:00,76.0,-99.9,-100.00,SSE,164,3.0,5.0,-999,0.00,,,0.20,,2013-05-19 21:43:00,
2013-05-19 16:53:00,76.0,-99.9,-100.00,SSE,164,3.0,5.0,-999,0.00,,,0.20,,2013-05-19 21:53:00,
2013-05-19 17:03:00,79.0,-99.9,-100.00,SSE,154,4.0,9.0,-999,0.00,,,0.20,,2013-05-19 22:03:00,
2013-05-19 17:13:00,79.0,-99.9,-100.00,SSE,154,4.0,9.0,-999,0.00,,,0.20,,2013-05-19 22:13:00,
2013-05-19 17:23:00,79.0,-99.9,-100.00,SSE,154,4.0,9.0,-999,0.00,,,0.20,,2013-05-19 22:23:00,
2013-05-19 17:33:00,83.0,-99.9,-100.00,SSE,156,3.0,6.0,-999,0.00,,,0.20,,2013-05-19 22:33:00,
2013-05-19 17:43:00,83.0,-99.9,-100.00,SSE,156,3.0,6.0,-999,0.00,,,0.20,,2013-05-19 22:43:00,
2013-05-19 17:53:00,83.0,-99.9,-100.00,SSE,156,3.0,6.0,-999,0.00,,,0.20,,2013-05-19 22:53:00,
2013-05-19 18:03:00,82.0,-99.9,-100.00,South,174,1.0,2.0,-999,0.00,,,0.20,,2013-05-19 23:03:00,
2013-05-19 18:12:00,82.0,-99.9,-100.00,South,174,1.0,2.0,-999,0.00,,,0.20,,2013-05-19 23:12:00,
2013-05-19 18:22:00,82.0,-99.9,-100.00,South,174,1.0,2.0,-999,0.00,,,0.20,,2013-05-19 23:22:00,
2013-05-19 18:32:00,82.0,-99.9,-100.00,SSE,158,5.0,8.0,-999,0.00,,,0.20,,2013-05-19 23:32:00,
2013-05-19 18:42:00,82.0,-99.9,-100.00,SSE,158,5.0,8.0,-999,0.00,,,0.20,,2013-05-19 23:42:00,
2013-05-19 18:53:00,82.0,-99.9,-100.00,SSE,158,5.0,8.0,-999,0.00,,,0.20,,2013-05-19 23:53:00,
2013-05-19 19:00:00,79.0,-99.9,-100.00,SSE,168,4.0,6.0,-999,0.00,,,0.20,,2013-05-20 00:00:00,
2013-05-19 19:02:00,84.0,-99.9,-100.00,SSE,161,5.0,8.0,-999,0.00,,,0.20,,2013-05-20 00:02:00,
2013-05-19 19:12:00,84.0,-99.9,-100.00,SSE,161,5.0,8.0,-999,0.00,,,0.20,,2013-05-20 00:12:00,
2013-05-19 19:22:00,84.0,-99.9,-100.00,SSE,161,5.0,8.0,-999,0.00,,,0.20,,2013-05-20 00:22:00,
2013-05-19 19:32:00,79.0,-99.9,-100.00,SSE,168,4.0,6.0,-999,0.00,,,0.20,,2013-05-20 00:32:00,
2013-05-19 19:42:00,79.0,-99.9,-100.00,SSE,168,4.0,6.0,-999,0.00,,,0.20,,2013-05-20 00:42:00,
2013-05-19 19:52:00,79.0,-99.9,-100.00,SSE,168,4.0,6.0,-999,0.00,,,0.20,,2013-05-20 00:52:00,
2013-05-19 21:02:00,77.0,-99.9,-100.00,South,170,18.0,27.0,-999,-99.99,,,0.20,,2013-05-20 02:02:00,
2013-05-19 21:12:00,77.0,-99.9,-100.00,South,170,18.0,27.0,-999,-99.99,,,0.20,,2013-05-20 02:12:00,
2013-05-19 21:22:00,77.0,-99.9,-100.00,South,170,18.0,27.0,-999,-99.99,,,0.20,,2013-05-20 02:22:00,
2013-05-19 21:32:00,78.0,-99.9,-100.00,SSE,147,17.0,24.0,-999,0.00,,,0.20,,2013-05-20 02:32:00,
2013-05-19 21:42:00,78.0,-99.9,-100.00,SSE,147,17.0,24.0,-999,0.00,,,0.20,,2013-05-20 02:42:00,
2013-05-19 21:52:00,78.0,-99.9,-100.00,SSE,147,17.0,24.0,-999,0.00,,,0.20,,2013-05-20 02:52:00,
2013-05-19 22:02:00,77.0,-99.9,-100.00,South,176,4.0,7.0,-999,0.00,,,0.20,,2013-05-20 03:02:00,
2013-05-19 22:12:00,77.0,-99.9,-100.00,South,176,4.0,7.0,-999,0.00,,,0.20,,2013-05-20 03:12:00,
2013-05-19 22:22:00,77.0,-99.9,-100.00,South,176,4.0,7.0,-999,0.00,,,0.20,,2013-05-20 03:22:00,
2013-05-19 22:33:00,76.0,-99.9,-100.00,South,171,2.0,4.0,-999,0.00,,,0.20,,2013-05-20 03:33:00,
2013-05-19 22:43:00,76.0,-99.9,-100.00,South,171,2.0,4.0,-999,0.00,,,0.20,,2013-05-20 03:43:00,
2013-05-19 22:53:00,76.0,-99.9,-100.00,South,171,2.0,4.0,-999,0.00,,,0.20,,2013-05-20 03:53:00,
2013-05-19 23:03:00,74.0,-99.9,-100.00,SSE,156,8.0,14.0,-999,0.00,,,0.20,,2013-05-20 04:03:00,
2013-05-19 23:13:00,74.0,-99.9,-100.00,SSE,156,8.0,14.0,-999,0.00,,,0.20,,2013-05-20 04:13:00,
2013-05-19 23:23:00,74.0,-99.9,-100.00,SSE,156,8.0,14.0,-999,0.00,,,0.20,,2013-05-20 04:23:00,
2013-05-19 23:30:00,74.0,-99.9,-100.00,SSE,157,12.0,17.0,-999,0.00,,,0.20,,2013-05-20 04:30:00,
2013-05-19 23:33:00,75.0,-99.9,-100.00,SSE,154,7.0,10.0,-999,0.00,,,0.20,,2013-05-20 04:33:00,
2013-05-19 23:43:00,75.0,-99.9,-100.00,SSE,154,7.0,10.0,-999,0.00,,,0.20,,2013-05-20 04:43:00,
2013-05-19 23:53:00,75.0,-99.9,-100.00,SSE,154,7.0,10.0,-999,0.00,,,0.20,,2013-05-20 04:53:00,